Time;durP1;ratioP1;P1;durP2;ratioP2;P2;SDS_P1;SDS_P2;PMS_P1;PMS_P2;Temp;Humidity;BMP_temperature;BMP_pressure;BME280_temperature;BME280_humidity;BME280_pressure;Samples;Min_cycle;Max_cycle;Signal;HPM_P1;HPM_P2
2022/06/18 00:00:20;;;;;;;1.70;1.60;;;;;;;;;;5043660;28;20208;-64
2022/06/18 00:02:47;;;;;;;2.05;1.77;;;;;;;;;;5043511;28;20208;-63
2022/06/18 00:05:15;;;;;;;1.63;1.50;;;;;;;;;;5044000;28;20256;-63
2022/06/18 00:07:45;;;;;;;1.70;1.70;;;;;;;;;;5041831;28;20231;-63
2022/06/18 00:10:14;;;;;;;1.67;1.60;;;;;;;;;;5028982;28;20685;-63
2022/06/18 00:15:29;;;;;;;1.85;1.75;;;;;;;;;;5041944;28;20637;-64
2022/06/18 00:17:57;;;;;;;1.70;1.63;;;;;;;;;;5041382;28;20210;-63
2022/06/18 00:20:25;;;;;;;1.33;1.20;;;;;;;;;;5040660;28;20874;-63
2022/06/18 00:22:54;;;;;;;1.70;1.60;;;;;;;;;;5035312;28;20235;-63
2022/06/18 00:25:23;;;;;;;2.40;1.60;;;;;;;;;;5028704;28;20207;-63
2022/06/18 00:27:52;;;;;;;1.73;1.63;;;;;;;;;;5037243;28;20208;-63
2022/06/18 00:30:21;;;;;;;2.95;1.58;;;;;;;;;;5038911;28;20215;-63
2022/06/18 00:32:48;;;;;;;4.22;1.40;;;;;;;;;;5044679;28;20227;-64
2022/06/18 00:35:15;;;;;;;1.58;1.45;;;;;;;;;;5044166;28;20224;-63
2022/06/18 00:37:43;;;;;;;2.15;1.83;;;;;;;;;;5042209;28;20302;-63
2022/06/18 00:40:14;;;;;;;1.95;1.85;;;;;;;;;;5042500;28;20207;-63
2022/06/18 00:42:42;;;;;;;1.33;1.33;;;;;;;;;;5027257;28;20212;-63
2022/06/18 00:45:13;;;;;;;1.40;1.40;;;;;;;;;;5038814;28;20783;-63
2022/06/18 00:47:43;;;;;;;1.55;1.45;;;;;;;;;;5041694;28;20644;-63
2022/06/18 00:50:14;;;;;;;1.95;1.80;;;;;;;;;;5046176;28;20220;-63
2022/06/18 00:52:43;;;;;;;1.80;1.63;;;;;;;;;;5047360;28;20227;-63
2022/06/18 00:55:12;;;;;;;1.77;1.77;;;;;;;;;;5044169;28;20223;-63
2022/06/18 00:57:41;;;;;;;1.83;1.73;;;;;;;;;;5048693;28;20264;-63
2022/06/18 01:00:11;;;;;;;1.45;1.42;;;;;;;;;;5049829;28;20203;-63
2022/06/18 01:02:40;;;;;;;3.60;1.58;;;;;;;;;;5047631;28;20219;-63
2022/06/18 01:05:19;;;;;;;1.50;1.40;;;;;;;;;;5051587;28;20203;-63
2022/06/18 01:07:48;;;;;;;1.48;1.48;;;;;;;;;;5050094;28;20208;-63
2022/06/18 01:10:17;;;;;;;1.77;1.77;;;;;;;;;;5049471;28;20295;-63
2022/06/18 01:12:44;;;;;;;1.70;1.60;;;;;;;;;;5050894;28;20211;-63
2022/06/18 01:15:12;;;;;;;1.88;1.60;;;;;;;;;;5039579;28;20235;-63
2022/06/18 01:17:41;;;;;;;3.10;1.60;;;;;;;;;;5037916;28;20214;-63
2022/06/18 01:20:11;;;;;;;1.40;1.40;;;;;;;;;;5049177;28;20203;-63
2022/06/18 01:22:41;;;;;;;1.27;1.27;;;;;;;;;;5049037;28;20212;-63
2022/06/18 01:25:10;;;;;;;1.67;1.67;;;;;;;;;;5050928;28;20218;-63
2022/06/18 01:27:38;;;;;;;1.70;1.20;;;;;;;;;;5042451;28;20204;-63
2022/06/18 01:30:06;;;;;;;1.77;1.67;;;;;;;;;;5046326;28;20207;-63
2022/06/18 01:32:33;;;;;;;4.00;1.70;;;;;;;;;;5050284;28;20575;-63
2022/06/18 01:35:01;;;;;;;1.40;1.30;;;;;;;;;;5032562;28;20229;-64
2022/06/18 01:37:28;;;;;;;4.30;1.33;;;;;;;;;;5038028;28;20373;-62
2022/06/18 01:39:55;;;;;;;1.20;1.20;;;;;;;;;;5048495;28;20211;-63
2022/06/18 01:42:26;;;;;;;1.65;1.55;;;;;;;;;;5050187;28;20212;-63
2022/06/18 01:44:56;;;;;;;1.50;1.40;;;;;;;;;;5043006;28;20698;-64
2022/06/18 01:47:26;;;;;;;1.60;1.50;;;;;;;;;;5051182;28;20688;-63
2022/06/18 01:49:57;;;;;;;1.13;1.13;;;;;;;;;;5050456;28;20603;-64
2022/06/18 01:52:25;;;;;;;2.63;1.30;;;;;;;;;;5046642;28;20258;-63
2022/06/18 01:54:54;;;;;;;1.90;1.58;;;;;;;;;;5048879;28;20273;-63
2022/06/18 01:57:25;;;;;;;2.35;1.40;;;;;;;;;;5044825;28;20737;-63
2022/06/18 01:59:55;;;;;;;1.45;1.45;;;;;;;;;;5050244;28;20281;-63
2022/06/18 02:02:22;;;;;;;1.90;1.80;;;;;;;;;;5050155;28;20212;-63
2022/06/18 02:04:49;;;;;;;1.30;1.30;;;;;;;;;;5049611;28;20200;-63
2022/06/18 02:07:17;;;;;;;1.38;1.38;;;;;;;;;;5049622;28;20674;-63
2022/06/18 02:09:49;;;;;;;1.60;1.52;;;;;;;;;;5049259;28;20210;-64
2022/06/18 02:12:18;;;;;;;1.45;1.35;;;;;;;;;;5050821;28;20285;-63
2022/06/18 02:14:49;;;;;;;1.60;1.50;;;;;;;;;;5048103;28;20767;-63
2022/06/18 02:17:17;;;;;;;1.70;1.60;;;;;;;;;;5049778;28;20674;-63
2022/06/18 02:19:46;;;;;;;1.52;1.48;;;;;;;;;;5049950;28;20231;-63
2022/06/18 02:22:13;;;;;;;2.22;2.03;;;;;;;;;;5039431;28;20212;-63
2022/06/18 02:24:41;;;;;;;1.65;1.55;;;;;;;;;;5033011;28;20240;-63
2022/06/18 02:27:11;;;;;;;1.63;1.63;;;;;;;;;;5049063;28;20574;-63
2022/06/18 02:29:38;;;;;;;2.33;2.10;;;;;;;;;;5038250;28;20242;-63
2022/06/18 02:32:11;;;;;;;1.73;1.73;;;;;;;;;;5046101;28;20277;-64
2022/06/18 02:34:38;;;;;;;2.47;2.20;;;;;;;;;;5041731;28;20228;-63
2022/06/18 02:37:13;;;;;;;2.22;2.13;;;;;;;;;;5049831;28;20261;-64
2022/06/18 02:39:41;;;;;;;1.92;1.83;;;;;;;;;;5047046;28;20265;-64
2022/06/18 02:42:10;;;;;;;1.83;1.83;;;;;;;;;;5038166;28;20234;-64
2022/06/18 02:44:37;;;;;;;2.47;2.28;;;;;;;;;;5047931;28;20253;-63
2022/06/18 02:47:06;;;;;;;2.92;2.17;;;;;;;;;;5045910;28;20215;-63
2022/06/18 02:49:35;;;;;;;1.88;1.88;;;;;;;;;;5049611;28;20662;-63
2022/06/18 02:52:04;;;;;;;1.95;1.85;;;;;;;;;;5049246;28;20650;-63
2022/06/18 02:54:31;;;;;;;1.50;1.50;;;;;;;;;;5047578;28;20603;-63
2022/06/18 02:57:00;;;;;;;2.05;1.95;;;;;;;;;;5047443;28;20285;-63
2022/06/18 02:59:27;;;;;;;1.83;1.73;;;;;;;;;;5049161;28;20216;-62
2022/06/18 03:01:54;;;;;;;1.40;1.40;;;;;;;;;;5049081;28;20249;-63
2022/06/18 03:04:22;;;;;;;1.80;1.70;;;;;;;;;;5047436;28;20203;-63
2022/06/18 03:06:50;;;;;;;1.88;1.73;;;;;;;;;;5046359;28;20674;-63
2022/06/18 03:09:17;;;;;;;1.40;1.30;;;;;;;;;;5049510;28;20615;-63
2022/06/18 03:14:29;;;;;;;2.85;1.73;;;;;;;;;;5030044;28;20231;-63
2022/06/18 03:16:56;;;;;;;1.60;1.50;;;;;;;;;;5048281;28;20223;-63
2022/06/18 03:19:30;;;;;;;1.50;1.38;;;;;;;;;;5048561;28;20238;-63
2022/06/18 03:22:02;;;;;;;3.65;1.55;;;;;;;;;;5046866;28;20291;-63
2022/06/18 03:24:29;;;;;;;1.63;1.48;;;;;;;;;;5048641;28;20199;-63
2022/06/18 03:26:56;;;;;;;1.95;1.35;;;;;;;;;;5047100;28;20666;-63
2022/06/18 03:29:24;;;;;;;1.45;1.30;;;;;;;;;;5038358;28;20208;-63
2022/06/18 03:31:51;;;;;;;1.60;1.50;;;;;;;;;;5048240;28;20204;-63
2022/06/18 03:34:18;;;;;;;2.10;1.60;;;;;;;;;;5048454;28;20204;-64
2022/06/18 03:36:45;;;;;;;1.48;1.48;;;;;;;;;;5048297;28;20211;-63
2022/06/18 03:39:14;;;;;;;1.65;1.55;;;;;;;;;;5048173;28;20299;-63
2022/06/18 03:41:41;;;;;;;1.60;1.60;;;;;;;;;;5047659;28;20211;-63
2022/06/18 03:44:08;;;;;;;1.55;1.55;;;;;;;;;;5044970;28;20257;-63
2022/06/18 03:46:37;;;;;;;1.65;1.55;;;;;;;;;;5048091;28;20207;-64
2022/06/18 03:49:08;;;;;;;1.90;1.88;;;;;;;;;;5047759;28;20557;-63
2022/06/18 03:51:35;;;;;;;1.98;1.60;;;;;;;;;;5045216;28;20307;-63
2022/06/18 03:54:02;;;;;;;1.40;1.40;;;;;;;;;;5044994;28;20262;-63
2022/06/18 03:56:32;;;;;;;3.95;1.67;;;;;;;;;;5046190;28;20231;-63
2022/06/18 03:58:59;;;;;;;1.55;1.55;;;;;;;;;;5045723;28;20666;-63
2022/06/18 04:01:27;;;;;;;3.88;1.70;;;;;;;;;;5043857;28;20212;-63
2022/06/18 04:03:54;;;;;;;1.75;1.65;;;;;;;;;;5045853;28;20253;-64
2022/06/18 04:06:21;;;;;;;1.50;1.42;;;;;;;;;;5045064;28;20758;-63
2022/06/18 04:08:48;;;;;;;1.83;1.73;;;;;;;;;;5045273;28;20206;-63
2022/06/18 04:11:16;;;;;;;1.77;1.67;;;;;;;;;;5048306;28;20196;-63
2022/06/18 04:13:45;;;;;;;1.48;1.40;;;;;;;;;;5044674;28;20554;-63
2022/06/18 04:16:12;;;;;;;1.52;1.52;;;;;;;;;;5045179;28;20273;-64
2022/06/18 04:18:40;;;;;;;1.48;1.48;;;;;;;;;;5046837;28;20620;-63
2022/06/18 04:21:07;;;;;;;1.90;1.83;;;;;;;;;;5042945;28;20207;-64
2022/06/18 04:23:34;;;;;;;1.75;1.75;;;;;;;;;;5049528;28;20309;-64
2022/06/18 04:26:01;;;;;;;1.90;1.77;;;;;;;;;;5051874;28;20196;-64
2022/06/18 04:28:28;;;;;;;1.50;1.48;;;;;;;;;;5045549;28;20261;-63
2022/06/18 04:30:57;;;;;;;1.45;1.45;;;;;;;;;;5048143;28;20702;-63
2022/06/18 04:33:24;;;;;;;1.75;1.65;;;;;;;;;;5050256;28;20269;-63
2022/06/18 04:35:52;;;;;;;2.05;1.98;;;;;;;;;;5050106;28;20220;-63
2022/06/18 04:38:20;;;;;;;3.15;1.42;;;;;;;;;;5047267;28;20641;-63
2022/06/18 04:40:47;;;;;;;1.70;1.60;;;;;;;;;;5049782;28;20293;-63
2022/06/18 04:43:14;;;;;;;1.67;1.67;;;;;;;;;;5048946;28;20277;-63
2022/06/18 04:45:41;;;;;;;1.83;1.83;;;;;;;;;;5049880;28;20274;-63
2022/06/18 04:48:10;;;;;;;1.80;1.67;;;;;;;;;;5049179;28;20207;-63
2022/06/18 04:50:38;;;;;;;3.13;1.80;;;;;;;;;;5050469;28;20204;-63
2022/06/18 04:53:05;;;;;;;1.48;1.48;;;;;;;;;;5048975;28;20913;-63
2022/06/18 04:55:33;;;;;;;1.60;1.60;;;;;;;;;;5049064;28;20239;-62
2022/06/18 04:58:00;;;;;;;1.50;1.50;;;;;;;;;;5048789;28;20342;-63
2022/06/18 05:00:27;;;;;;;2.00;1.90;;;;;;;;;;5049537;28;20257;-63
2022/06/18 05:02:54;;;;;;;1.50;1.50;;;;;;;;;;5050741;28;20385;-63
2022/06/18 05:05:26;;;;;;;2.15;1.85;;;;;;;;;;5049526;28;20335;-63
2022/06/18 05:07:53;;;;;;;1.75;1.50;;;;;;;;;;5049875;28;20744;-63
2022/06/18 05:10:20;;;;;;;1.67;1.63;;;;;;;;;;5049198;28;20350;-63
2022/06/18 05:12:47;;;;;;;5.88;1.85;;;;;;;;;;5049576;28;20203;-63
2022/06/18 05:15:14;;;;;;;1.73;1.73;;;;;;;;;;5049999;28;20223;-63
2022/06/18 05:17:43;;;;;;;3.05;1.80;;;;;;;;;;5050158;28;20634;-63
2022/06/18 05:20:12;;;;;;;1.90;1.73;;;;;;;;;;5044620;28;20293;-63
2022/06/18 05:22:41;;;;;;;4.03;1.67;;;;;;;;;;5046692;28;20273;-63
2022/06/18 05:25:08;;;;;;;2.58;1.85;;;;;;;;;;5049713;28;20659;-63
2022/06/18 05:27:37;;;;;;;1.60;1.60;;;;;;;;;;5047458;28;20200;-64
2022/06/18 05:30:04;;;;;;;1.80;1.80;;;;;;;;;;5049950;28;20290;-63
2022/06/18 05:32:32;;;;;;;2.20;2.10;;;;;;;;;;5046653;28;20288;-63
2022/06/18 05:34:59;;;;;;;1.45;1.30;;;;;;;;;;5049094;28;20196;-64
2022/06/18 05:37:27;;;;;;;1.90;1.80;;;;;;;;;;5050097;28;20211;-64
2022/06/18 05:39:55;;;;;;;1.50;1.50;;;;;;;;;;5048711;28;20681;-64
2022/06/18 05:42:22;;;;;;;2.47;1.60;;;;;;;;;;5049166;28;20215;-64
2022/06/18 05:44:49;;;;;;;1.25;1.25;;;;;;;;;;5050243;28;20314;-64
2022/06/18 05:47:17;;;;;;;1.40;1.40;;;;;;;;;;5048503;28;20249;-64
2022/06/18 05:49:44;;;;;;;2.42;1.48;;;;;;;;;;5046413;28;20199;-64
2022/06/18 05:52:12;;;;;;;1.40;1.40;;;;;;;;;;5048733;28;20212;-64
2022/06/18 05:54:39;;;;;;;1.50;1.40;;;;;;;;;;5044103;28;20577;-64
2022/06/18 05:57:07;;;;;;;2.83;1.52;;;;;;;;;;5048904;28;20232;-66
2022/06/18 05:59:34;;;;;;;1.65;1.55;;;;;;;;;;5047939;28;20208;-64
2022/06/18 06:02:01;;;;;;;1.67;1.58;;;;;;;;;;5049391;28;20200;-64
2022/06/18 06:04:29;;;;;;;1.50;1.40;;;;;;;;;;5044319;28;20251;-63
2022/06/18 06:06:56;;;;;;;1.33;1.23;;;;;;;;;;5045486;28;20204;-63
2022/06/18 06:12:11;;;;;;;3.50;1.30;;;;;;;;;;5049097;28;20578;-63
2022/06/18 06:14:38;;;;;;;1.50;1.50;;;;;;;;;;5042315;28;20206;-64
2022/06/18 06:17:06;;;;;;;1.60;1.60;;;;;;;;;;5049276;28;20223;-64
2022/06/18 06:19:33;;;;;;;3.58;1.42;;;;;;;;;;5049128;28;20212;-64
2022/06/18 06:22:00;;;;;;;1.50;1.40;;;;;;;;;;5048707;28;20215;-64
2022/06/18 06:24:27;;;;;;;1.20;1.20;;;;;;;;;;5048507;28;20748;-64
2022/06/18 06:26:54;;;;;;;1.50;1.50;;;;;;;;;;5047128;28;20196;-64
2022/06/18 06:29:22;;;;;;;2.15;1.40;;;;;;;;;;5046978;28;20684;-64
2022/06/18 06:31:49;;;;;;;1.33;1.15;;;;;;;;;;5042700;28;20250;-64
2022/06/18 06:34:16;;;;;;;1.67;1.58;;;;;;;;;;5044023;28;20204;-64
2022/06/18 06:36:43;;;;;;;1.30;1.30;;;;;;;;;;5049014;28;20231;-64
2022/06/18 06:39:10;;;;;;;2.45;1.65;;;;;;;;;;5048939;28;20681;-64
2022/06/18 06:41:37;;;;;;;3.30;1.40;;;;;;;;;;5049090;28;20662;-64
2022/06/18 06:44:05;;;;;;;1.38;1.38;;;;;;;;;;5048943;28;20231;-64
2022/06/18 06:46:33;;;;;;;1.30;1.30;;;;;;;;;;5044457;28;20204;-64
2022/06/18 06:49:00;;;;;;;1.50;1.40;;;;;;;;;;5048714;28;20261;-64
2022/06/18 06:51:29;;;;;;;1.50;1.40;;;;;;;;;;5048273;28;20277;-64
2022/06/18 06:53:56;;;;;;;3.13;1.20;;;;;;;;;;5046370;28;20641;-64
2022/06/18 06:59:09;;;;;;;1.45;1.40;;;;;;;;;;5048025;28;20282;-64
2022/06/18 07:01:38;;;;;;;1.08;1.08;;;;;;;;;;5046886;28;20199;-63
2022/06/18 07:04:06;;;;;;;2.25;1.48;;;;;;;;;;5048451;28;20227;-63
2022/06/18 07:06:35;;;;;;;1.52;1.52;;;;;;;;;;5045469;28;20294;-64
2022/06/18 07:09:02;;;;;;;1.45;1.45;;;;;;;;;;5046425;28;20199;-64
2022/06/18 07:11:29;;;;;;;2.67;1.80;;;;;;;;;;5044645;28;20196;-64
2022/06/18 07:13:56;;;;;;;1.52;1.42;;;;;;;;;;5045227;28;20207;-64
2022/06/18 07:16:23;;;;;;;1.05;1.05;;;;;;;;;;5045934;28;20228;-63
2022/06/18 07:18:53;;;;;;;1.60;1.50;;;;;;;;;;5048232;28;20751;-64
2022/06/18 07:21:21;;;;;;;2.58;1.65;;;;;;;;;;5047693;28;20212;-64
2022/06/18 07:23:48;;;;;;;1.63;1.58;;;;;;;;;;5048053;28;20211;-63
2022/06/18 07:26:17;;;;;;;1.48;1.38;;;;;;;;;;5045876;28;20309;-64
2022/06/18 07:28:44;;;;;;;1.45;1.40;;;;;;;;;;5047527;28;20207;-65
2022/06/18 07:31:15;;;;;;;1.70;1.60;;;;;;;;;;5043113;28;20279;-64
2022/06/18 07:33:42;;;;;;;3.47;1.40;;;;;;;;;;5045613;28;20330;-65
2022/06/18 07:36:11;;;;;;;2.72;1.55;;;;;;;;;;5047775;28;20239;-61
2022/06/18 07:38:38;;;;;;;1.30;1.30;;;;;;;;;;5047795;28;20615;-61
2022/06/18 07:41:05;;;;;;;1.30;1.30;;;;;;;;;;5047343;28;20212;-63
2022/06/18 07:43:34;;;;;;;3.67;1.27;;;;;;;;;;5047182;28;20646;-61
2022/06/18 07:46:02;;;;;;;1.42;1.42;;;;;;;;;;5047265;28;20271;-64
2022/06/18 07:48:29;;;;;;;1.27;1.27;;;;;;;;;;5045738;28;20207;-62
2022/06/18 07:50:56;;;;;;;1.55;1.45;;;;;;;;;;5045936;28;20283;-63
2022/06/18 07:53:25;;;;;;;1.38;1.38;;;;;;;;;;5044060;28;20293;-62
2022/06/18 07:55:54;;;;;;;1.60;1.60;;;;;;;;;;5046757;28;20277;-63
2022/06/18 07:58:22;;;;;;;1.33;1.33;;;;;;;;;;5047790;28;20211;-64
2022/06/18 08:00:49;;;;;;;1.65;1.30;;;;;;;;;;5053811;28;20205;-63
2022/06/18 08:03:17;;;;;;;1.58;1.50;;;;;;;;;;5052074;28;20204;-63
2022/06/18 08:05:45;;;;;;;1.40;1.30;;;;;;;;;;5052549;28;20549;-65
2022/06/18 08:08:12;;;;;;;1.20;1.20;;;;;;;;;;5054340;28;20583;-64
2022/06/18 08:10:41;;;;;;;1.30;1.20;;;;;;;;;;5053439;28;20286;-64
2022/06/18 08:13:09;;;;;;;1.27;1.27;;;;;;;;;;5053901;28;20199;-64
2022/06/18 08:15:36;;;;;;;1.48;1.48;;;;;;;;;;5051846;28;20322;-65
2022/06/18 08:18:06;;;;;;;1.55;1.55;;;;;;;;;;5053706;28;20229;-64
2022/06/18 08:20:35;;;;;;;1.40;1.40;;;;;;;;;;5052370;28;20211;-64
2022/06/18 08:23:03;;;;;;;4.05;1.70;;;;;;;;;;5053046;28;20213;-64
2022/06/18 08:25:31;;;;;;;1.38;1.38;;;;;;;;;;5051368;28;20298;-65
2022/06/18 08:28:02;;;;;;;3.53;1.40;;;;;;;;;;5052295;28;20223;-64
2022/06/18 08:30:30;;;;;;;1.27;1.27;;;;;;;;;;5053513;28;20212;-65
2022/06/18 08:32:57;;;;;;;1.65;1.65;;;;;;;;;;5054071;28;20916;-65
2022/06/18 08:35:24;;;;;;;1.45;1.45;;;;;;;;;;5054803;28;20204;-65
2022/06/18 08:37:52;;;;;;;1.45;1.40;;;;;;;;;;5053755;28;20697;-65
2022/06/18 08:40:35;;;;;;;1.50;1.40;;;;;;;;;;5054122;28;20196;-65
2022/06/18 08:43:06;;;;;;;1.60;1.50;;;;;;;;;;5053110;28;20934;-65
2022/06/18 08:45:37;;;;;;;1.55;1.55;;;;;;;;;;5054190;28;20214;-65
2022/06/18 08:48:16;;;;;;;1.40;1.40;;;;;;;;;;5053711;28;20203;-64
2022/06/18 08:50:48;;;;;;;1.42;1.42;;;;;;;;;;5054119;28;20203;-66
2022/06/18 08:53:23;;;;;;;2.80;1.70;;;;;;;;;;5053223;28;20231;-63
2022/06/18 08:55:55;;;;;;;1.88;1.77;;;;;;;;;;5053238;28;20227;-71
2022/06/18 08:58:28;;;;;;;1.38;1.38;;;;;;;;;;5054598;28;20257;-61
2022/06/18 09:00:59;;;;;;;1.85;1.75;;;;;;;;;;5052841;28;20672;-61
2022/06/18 09:03:32;;;;;;;1.98;1.83;;;;;;;;;;5050519;28;20207;-60
2022/06/18 09:06:05;;;;;;;1.70;1.60;;;;;;;;;;5050651;28;20208;-61
2022/06/18 09:08:43;;;;;;;5.30;1.73;;;;;;;;;;5053824;28;20283;-61
2022/06/18 09:11:20;;;;;;;3.67;1.98;;;;;;;;;;5049925;28;20203;-60
2022/06/18 09:13:50;;;;;;;4.47;1.90;;;;;;;;;;5049113;28;20199;-64
2022/06/18 09:16:18;;;;;;;1.50;1.50;;;;;;;;;;5050173;28;20215;-65
2022/06/18 09:18:48;;;;;;;2.05;1.95;;;;;;;;;;5049859;28;20203;-65
2022/06/18 09:21:16;;;;;;;2.13;1.90;;;;;;;;;;5049638;28;20494;-64
2022/06/18 09:23:45;;;;;;;1.40;1.40;;;;;;;;;;5050627;28;20211;-66
2022/06/18 09:26:15;;;;;;;1.55;1.48;;;;;;;;;;5045008;28;20436;-66
2022/06/18 09:28:45;;;;;;;1.77;1.67;;;;;;;;;;5040453;28;20215;-65
2022/06/18 09:31:14;;;;;;;4.65;1.40;;;;;;;;;;5046309;28;20257;-65
2022/06/18 09:33:44;;;;;;;1.50;1.50;;;;;;;;;;5050494;28;20211;-65
2022/06/18 09:36:13;;;;;;;1.50;1.50;;;;;;;;;;5049389;28;20199;-64
2022/06/18 09:38:42;;;;;;;3.17;1.67;;;;;;;;;;5050310;28;20207;-65
2022/06/18 09:41:12;;;;;;;1.85;1.75;;;;;;;;;;5049844;28;20207;-65
2022/06/18 09:43:43;;;;;;;1.60;1.50;;;;;;;;;;5046415;28;20214;-65
2022/06/18 09:46:13;;;;;;;2.47;1.58;;;;;;;;;;5047013;28;20203;-65
2022/06/18 09:48:43;;;;;;;1.88;1.85;;;;;;;;;;5048188;28;20211;-65
2022/06/18 09:51:15;;;;;;;4.13;1.40;;;;;;;;;;5050398;28;20211;-65
2022/06/18 09:53:44;;;;;;;1.60;1.60;;;;;;;;;;5048591;28;20223;-65
2022/06/18 09:56:13;;;;;;;1.98;1.70;;;;;;;;;;5046354;28;20300;-65
2022/06/18 09:58:43;;;;;;;1.40;1.30;;;;;;;;;;5050106;28;20261;-66
2022/06/18 10:01:14;;;;;;;1.73;1.40;;;;;;;;;;5049481;28;20218;-66
2022/06/18 10:09:16;;;;;;;1.48;1.35;;;;;;;;;;5048464;28;20210;-66
2022/06/18 10:11:44;;;;;;;1.45;1.45;;;;;;;;;;5049158;28;20203;-66
2022/06/18 10:14:14;;;;;;;1.70;1.60;;;;;;;;;;5049427;28;20199;-66
2022/06/18 10:16:46;;;;;;;3.88;1.88;;;;;;;;;;5046704;28;20289;-66
2022/06/18 10:19:21;;;;;;;1.52;1.50;;;;;;;;;;5049605;28;20253;-66
2022/06/18 10:21:52;;;;;;;2.30;1.58;;;;;;;;;;5049693;28;20273;-66
2022/06/18 10:24:23;;;;;;;3.08;1.50;;;;;;;;;;5042203;28;20203;-64
2022/06/18 10:26:53;;;;;;;1.40;1.40;;;;;;;;;;5044198;28;20270;-66
2022/06/18 10:29:28;;;;;;;1.60;1.50;;;;;;;;;;5050749;28;20238;-66
2022/06/18 10:32:00;;;;;;;3.85;1.60;;;;;;;;;;5050530;28;20251;-66
2022/06/18 10:34:34;;;;;;;1.50;1.40;;;;;;;;;;5050770;28;20269;-64
2022/06/18 10:37:08;;;;;;;1.67;1.67;;;;;;;;;;5050117;28;20263;-66
2022/06/18 10:39:38;;;;;;;1.70;1.38;;;;;;;;;;5038548;28;20219;-66
2022/06/18 10:42:14;;;;;;;1.52;1.42;;;;;;;;;;5027659;28;20211;-66
2022/06/18 10:44:47;;;;;;;1.52;1.42;;;;;;;;;;5027895;28;20752;-66
2022/06/18 10:47:17;;;;;;;2.33;1.60;;;;;;;;;;5031303;28;20550;-65
2022/06/18 10:49:46;;;;;;;1.48;1.48;;;;;;;;;;5034739;28;20948;-65
2022/06/18 10:52:22;;;;;;;1.55;1.50;;;;;;;;;;5036781;28;20203;-65
2022/06/18 10:54:49;;;;;;;1.20;1.20;;;;;;;;;;5046246;28;20531;-66
2022/06/18 10:57:23;;;;;;;2.65;1.52;;;;;;;;;;5045790;28;20559;-66
2022/06/18 10:59:51;;;;;;;1.50;1.40;;;;;;;;;;5036520;28;20261;-64
2022/06/18 11:02:19;;;;;;;1.20;1.20;;;;;;;;;;5045857;28;20237;-64
2022/06/18 11:04:54;;;;;;;1.65;1.55;;;;;;;;;;5042538;28;20219;-63
2022/06/18 11:07:23;;;;;;;1.17;1.17;;;;;;;;;;5045255;28;20487;-62
2022/06/18 11:09:55;;;;;;;1.30;1.30;;;;;;;;;;5045516;28;20207;-62
2022/06/18 11:12:23;;;;;;;2.50;1.40;;;;;;;;;;5046115;28;20211;-63
2022/06/18 11:14:50;;;;;;;1.00;1.00;;;;;;;;;;5033329;28;20199;-62
2022/06/18 11:17:21;;;;;;;1.48;1.38;;;;;;;;;;5038389;28;20241;-62
2022/06/18 11:19:49;;;;;;;2.55;1.17;;;;;;;;;;5043061;28;20206;-63
2022/06/18 11:22:19;;;;;;;1.40;1.30;;;;;;;;;;5042870;28;20721;-63
2022/06/18 11:24:46;;;;;;;3.42;1.50;;;;;;;;;;5044411;28;20849;-63
2022/06/18 11:27:16;;;;;;;1.33;1.20;;;;;;;;;;5043547;28;20256;-63
2022/06/18 11:29:44;;;;;;;1.67;1.10;;;;;;;;;;5043899;28;20207;-63
2022/06/18 11:32:13;;;;;;;2.28;1.30;;;;;;;;;;5038023;28;20268;-65
2022/06/18 11:34:41;;;;;;;3.28;1.50;;;;;;;;;;5043647;28;20214;-62
2022/06/18 11:37:18;;;;;;;1.33;1.33;;;;;;;;;;5042120;28;20633;-62
2022/06/18 11:39:53;;;;;;;1.48;1.38;;;;;;;;;;5036924;28;20214;-60
2022/06/18 11:42:23;;;;;;;1.50;1.40;;;;;;;;;;5044114;28;20219;-62
2022/06/18 11:44:53;;;;;;;1.25;1.15;;;;;;;;;;5044230;28;20207;-63
2022/06/18 11:47:24;;;;;;;2.05;1.40;;;;;;;;;;5043453;28;20211;-62
2022/06/18 11:49:56;;;;;;;2.33;1.25;;;;;;;;;;5043793;28;20209;-61
2022/06/18 11:52:28;;;;;;;1.38;1.27;;;;;;;;;;5044582;28;20298;-62
2022/06/18 11:55:03;;;;;;;1.38;1.30;;;;;;;;;;5042012;28;20245;-62
2022/06/18 11:57:31;;;;;;;2.47;1.58;;;;;;;;;;5043123;28;20226;-59
2022/06/18 12:00:03;;;;;;;1.80;1.70;;;;;;;;;;5028876;28;20207;-60
2022/06/18 12:02:37;;;;;;;2.47;1.42;;;;;;;;;;5042911;28;20222;-61
2022/06/18 12:05:07;;;;;;;3.58;1.67;;;;;;;;;;5042392;28;20240;-62
2022/06/18 12:07:36;;;;;;;3.88;1.80;;;;;;;;;;5044878;28;20608;-60
2022/06/18 12:10:05;;;;;;;1.45;1.35;;;;;;;;;;5031933;28;20258;-61
2022/06/18 12:12:41;;;;;;;3.92;1.83;;;;;;;;;;5031166;28;20255;-60
2022/06/18 12:15:12;;;;;;;2.75;1.90;;;;;;;;;;5033333;28;20206;-60
2022/06/18 12:17:43;;;;;;;1.85;1.48;;;;;;;;;;5034187;28;20269;-60
2022/06/18 12:20:17;;;;;;;4.93;1.30;;;;;;;;;;5044601;28;20207;-60
2022/06/18 12:22:48;;;;;;;2.38;1.48;;;;;;;;;;5044167;28;20207;-60
2022/06/18 12:25:27;;;;;;;1.77;1.38;;;;;;;;;;5044089;28;20646;-60
2022/06/18 12:28:00;;;;;;;2.00;1.35;;;;;;;;;;5044691;28;20203;-60
2022/06/18 12:30:30;;;;;;;2.72;1.70;;;;;;;;;;5040142;28;21485;-60
2022/06/18 12:33:00;;;;;;;3.05;1.50;;;;;;;;;;5028112;28;20312;-60
2022/06/18 12:35:33;;;;;;;2.92;1.65;;;;;;;;;;5034047;28;20215;-60
2022/06/18 12:38:06;;;;;;;6.40;1.42;;;;;;;;;;5039127;28;20233;-61
2022/06/18 12:40:39;;;;;;;5.93;1.70;;;;;;;;;;5035060;28;20208;-61
2022/06/18 12:43:09;;;;;;;2.40;1.33;;;;;;;;;;5039673;28;20207;-61
2022/06/18 12:45:39;;;;;;;1.35;1.17;;;;;;;;;;5029740;28;20211;-61
2022/06/18 12:48:10;;;;;;;3.40;1.40;;;;;;;;;;5028932;28;20212;-60
2022/06/18 12:50:42;;;;;;;3.47;1.50;;;;;;;;;;5031467;28;20780;-61
2022/06/18 12:53:13;;;;;;;1.83;1.40;;;;;;;;;;5035442;28;20681;-63
2022/06/18 12:55:43;;;;;;;4.60;1.83;;;;;;;;;;5026843;28;20292;-63
2022/06/18 12:58:16;;;;;;;3.45;1.40;;;;;;;;;;5032789;28;20277;-62
2022/06/18 13:00:48;;;;;;;5.03;1.20;;;;;;;;;;5032945;28;20215;-62
2022/06/18 13:03:22;;;;;;;3.00;1.50;;;;;;;;;;5037923;28;20219;-62
2022/06/18 13:05:50;;;;;;;7.38;1.42;;;;;;;;;;5044437;28;20268;-62
2022/06/18 13:08:25;;;;;;;6.50;1.55;;;;;;;;;;5043404;28;20206;-62
2022/06/18 13:10:57;;;;;;;4.25;1.23;;;;;;;;;;5042229;28;20210;-62
2022/06/18 13:13:29;;;;;;;3.67;1.48;;;;;;;;;;5043641;28;20681;-61
2022/06/18 13:15:59;;;;;;;4.93;1.20;;;;;;;;;;5047457;28;20196;-62
2022/06/18 13:18:29;;;;;;;8.63;1.50;;;;;;;;;;5047493;28;20230;-61
2022/06/18 13:20:59;;;;;;;7.28;1.45;;;;;;;;;;5045531;28;20211;-62
2022/06/18 13:29:03;;;;;;;8.15;1.77;;;;;;;;;;5047279;28;20416;-62
2022/06/18 13:31:33;;;;;;;7.38;1.20;;;;;;;;;;5046771;28;20257;-61
2022/06/18 13:34:05;;;;;;;2.08;1.20;;;;;;;;;;5046993;28;20211;-61
2022/06/18 13:36:38;;;;;;;3.97;1.65;;;;;;;;;;5047294;28;20211;-61
2022/06/18 13:39:11;;;;;;;7.30;1.02;;;;;;;;;;5047100;28;20288;-62
2022/06/18 13:41:41;;;;;;;2.95;1.75;;;;;;;;;;5044709;28;20316;-62
2022/06/18 13:44:20;;;;;;;8.10;1.77;;;;;;;;;;5044917;28;20199;-62
2022/06/18 13:46:52;;;;;;;5.82;1.52;;;;;;;;;;5047093;28;20214;-62
2022/06/18 13:49:22;;;;;;;9.48;1.65;;;;;;;;;;5045850;28;20207;-62
2022/06/18 13:51:57;;;;;;;7.47;1.50;;;;;;;;;;5038136;28;20209;-62
2022/06/18 13:54:24;;;;;;;5.25;1.40;;;;;;;;;;5044810;28;20714;-61
2022/06/18 13:56:59;;;;;;;2.60;1.63;;;;;;;;;;5045364;28;20284;-63
2022/06/18 13:59:26;;;;;;;8.10;1.60;;;;;;;;;;5046195;28;20226;-62
2022/06/18 14:01:55;;;;;;;4.95;1.30;;;;;;;;;;5046685;28;20203;-62
2022/06/18 14:04:25;;;;;;;5.07;1.40;;;;;;;;;;5029224;28;20220;-62
2022/06/18 14:06:54;;;;;;;5.18;1.90;;;;;;;;;;5029937;28;20207;-60
2022/06/18 14:09:23;;;;;;;2.65;1.45;;;;;;;;;;5045335;28;20265;-69
2022/06/18 14:11:52;;;;;;;3.75;1.55;;;;;;;;;;5046226;28;20319;-59
2022/06/18 14:14:29;;;;;;;4.13;1.67;;;;;;;;;;5045635;28;20806;-60
2022/06/18 14:17:01;;;;;;;2.95;1.60;;;;;;;;;;5046590;28;20202;-60
2022/06/18 14:19:29;;;;;;;10.38;1.70;;;;;;;;;;5044149;28;20308;-60
2022/06/18 14:22:04;;;;;;;7.95;1.63;;;;;;;;;;5042733;28;20211;-68
2022/06/18 14:27:07;;;;;;;3.25;1.30;;;;;;;;;;5825064;22;20500;-62
2022/06/18 14:29:40;;;;;;;2.58;1.50;;;;;;;;;;5002852;28;20295;-61
2022/06/18 14:32:12;;;;;;;2.47;1.88;;;;;;;;;;5001633;28;20208;-61
2022/06/18 14:34:47;;;;;;;3.70;2.33;;;;;;;;;;5004375;28;20624;-61
2022/06/18 14:37:19;;;;;;;4.07;2.13;;;;;;;;;;5005379;28;20216;-61
2022/06/18 14:40:10;;;;;;;4.68;1.90;;;;;;;;;;5005223;28;20311;-60
2022/06/18 14:45:47;;;;;;;4.93;1.58;;;;;;;;;;5003919;28;20672;-60
2022/06/18 14:48:29;;;;;;;1.63;1.50;;;;;;;;;;5003209;28;20295;-60
2022/06/18 14:51:09;;;;;;;4.78;1.48;;;;;;;;;;5005835;28;20211;-61
2022/06/18 14:53:51;;;;;;;4.20;1.52;;;;;;;;;;5006129;28;20215;-61
2022/06/18 14:56:28;;;;;;;3.75;1.38;;;;;;;;;;4961323;28;20227;-61
2022/06/18 14:59:06;;;;;;;1.58;1.45;;;;;;;;;;5003183;28;20266;-61
2022/06/18 15:01:45;;;;;;;2.78;1.90;;;;;;;;;;5005959;28;20212;-61
2022/06/18 15:04:16;;;;;;;6.00;1.92;;;;;;;;;;5001041;28;20204;-61
2022/06/18 15:06:43;;;;;;;6.13;1.60;;;;;;;;;;4996912;28;20212;-61
2022/06/18 15:09:13;;;;;;;2.28;1.95;;;;;;;;;;5002259;28;20256;-60
2022/06/18 15:11:41;;;;;;;3.38;1.40;;;;;;;;;;5005388;28;20290;-60
2022/06/18 15:14:11;;;;;;;3.30;1.60;;;;;;;;;;5004738;28;20215;-60
2022/06/18 15:16:48;;;;;;;3.10;1.55;;;;;;;;;;5004265;28;20216;-61
2022/06/18 15:19:27;;;;;;;2.58;1.52;;;;;;;;;;5018322;28;20334;-61
2022/06/18 15:21:56;;;;;;;3.38;1.63;;;;;;;;;;5004782;28;20998;-60
2022/06/18 15:24:33;;;;;;;3.60;1.48;;;;;;;;;;5002940;28;20239;-60